Aviation Digital Data Service (ADDS)

Output produced by METARs form (2051 UTC 17 November 2019)
found at http://www.aviationweather.gov/metar/data/
 
Forecast for: ZGKL (GUILIN , CN)
Text: TAF ZGKL 171515Z 1718/1818 VRB01MPS 2000 -RA BR SCT030 OVC040 TX18/1718Z TN12/1817Z
Forecast period: 1800 to 2000 UTC 17 November 2019
Forecast type: FROM: standard forecast or significant change
Winds: variable direction winds at 2 MPH (2 knots; 1.0 m/s)
Visibility: 1.24 miles (2.00 km)
Ceiling: 4000 feet AGL
Clouds: scattered clouds at 3000 feet AGL
overcast cloud deck at 4000 feet AGL
Weather: -RA BR  (light rain, mist)
Text: TEMPO 1718/1724 RA
Forecast period: 1800 UTC 17 November 2019 to 0000 UTC 18 November 2019
Forecast type: TEMPORARY: The following changes expected for less than half the time period
Visibility: missing
Ceiling: unknown
Clouds: missing
Weather: RA  (moderate rain)
Text: BECMG 1720/1721 05007MPS 6000
Forecast period: 2000 UTC 17 November 2019 to 1800 UTC 18 November 2019
Forecast type: BECOMING: Conditions expected to become as follows by 2100 UTC 17 November 2019
Winds: from the NE (50 degrees) at 16 MPH (14 knots; 7.2 m/s)
Visibility: 4 miles (6 km)
Ceiling: 4000 feet AGL
Clouds: scattered clouds at 3000 feet AGL
overcast cloud deck at 4000 feet AGL
Weather: -RA BR  (light rain, mist)